sensor_id;sensor_type;location;lat;lon;timestamp;P1;durP1;ratioP1;P2;durP2;ratioP2
5127;SDS011;2582;48.770;9.190;2023-06-01T00:00:32;5.30;;;4.00;;
5127;SDS011;2582;48.770;9.190;2023-06-01T00:02:57;6.07;;;4.23;;
5127;SDS011;2582;48.770;9.190;2023-06-01T00:05:23;4.40;;;3.73;;
5127;SDS011;2582;48.770;9.190;2023-06-01T00:07:48;7.27;;;3.70;;
5127;SDS011;2582;48.770;9.190;2023-06-01T00:10:14;5.00;;;3.93;;
5127;SDS011;2582;48.770;9.190;2023-06-01T00:12:40;5.20;;;3.87;;
5127;SDS011;2582;48.770;9.190;2023-06-01T00:15:05;5.83;;;4.27;;
5127;SDS011;2582;48.770;9.190;2023-06-01T00:17:31;4.73;;;3.57;;
5127;SDS011;2582;48.770;9.190;2023-06-01T00:19:57;4.53;;;3.90;;
5127;SDS011;2582;48.770;9.190;2023-06-01T00:22:26;6.10;;;3.77;;
5127;SDS011;2582;48.770;9.190;2023-06-01T00:24:59;6.33;;;3.90;;
5127;SDS011;2582;48.770;9.190;2023-06-01T00:27:25;5.00;;;3.70;;
5127;SDS011;2582;48.770;9.190;2023-06-01T00:29:50;4.97;;;3.80;;
5127;SDS011;2582;48.770;9.190;2023-06-01T00:32:16;10.93;;;4.40;;
5127;SDS011;2582;48.770;9.190;2023-06-01T00:34:41;6.17;;;3.23;;
5127;SDS011;2582;48.770;9.190;2023-06-01T00:37:07;5.13;;;4.50;;
5127;SDS011;2582;48.770;9.190;2023-06-01T00:39:32;6.87;;;4.13;;
5127;SDS011;2582;48.770;9.190;2023-06-01T00:41:58;10.13;;;4.07;;
5127;SDS011;2582;48.770;9.190;2023-06-01T00:44:24;4.73;;;4.33;;
5127;SDS011;2582;48.770;9.190;2023-06-01T00:46:49;5.60;;;3.67;;
5127;SDS011;2582;48.770;9.190;2023-06-01T00:49:15;5.17;;;3.40;;
5127;SDS011;2582;48.770;9.190;2023-06-01T00:51:41;4.40;;;3.90;;
5127;SDS011;2582;48.770;9.190;2023-06-01T00:54:07;6.53;;;3.63;;
5127;SDS011;2582;48.770;9.190;2023-06-01T00:56:32;6.73;;;3.90;;
5127;SDS011;2582;48.770;9.190;2023-06-01T00:59:00;5.00;;;3.97;;
5127;SDS011;2582;48.770;9.190;2023-06-01T01:01:26;4.27;;;3.43;;
5127;SDS011;2582;48.770;9.190;2023-06-01T01:03:51;5.47;;;4.30;;
5127;SDS011;2582;48.770;9.190;2023-06-01T01:06:27;5.03;;;3.80;;
5127;SDS011;2582;48.770;9.190;2023-06-01T01:10:04;5.33;;;4.03;;
5127;SDS011;2582;48.770;9.190;2023-06-01T01:12:17;4.37;;;3.77;;
5127;SDS011;2582;48.770;9.190;2023-06-01T01:14:51;4.43;;;3.90;;
5127;SDS011;2582;48.770;9.190;2023-06-01T01:17:31;7.00;;;4.60;;
5127;SDS011;2582;48.770;9.190;2023-06-01T01:20:00;5.50;;;4.60;;
5127;SDS011;2582;48.770;9.190;2023-06-01T01:28:10;4.07;;;3.67;;
5127;SDS011;2582;48.770;9.190;2023-06-01T01:30:57;7.27;;;3.90;;
5127;SDS011;2582;48.770;9.190;2023-06-01T01:33:26;6.73;;;4.47;;
5127;SDS011;2582;48.770;9.190;2023-06-01T01:35:53;4.97;;;4.47;;
5127;SDS011;2582;48.770;9.190;2023-06-01T01:38:20;4.63;;;3.87;;
5127;SDS011;2582;48.770;9.190;2023-06-01T01:40:45;4.63;;;3.93;;
5127;SDS011;2582;48.770;9.190;2023-06-01T01:43:11;4.93;;;3.97;;
5127;SDS011;2582;48.770;9.190;2023-06-01T01:45:37;4.10;;;3.60;;
5127;SDS011;2582;48.770;9.190;2023-06-01T01:48:05;4.30;;;3.90;;
5127;SDS011;2582;48.770;9.190;2023-06-01T01:50:38;5.70;;;3.87;;
5127;SDS011;2582;48.770;9.190;2023-06-01T01:53:09;7.17;;;4.00;;
5127;SDS011;2582;48.770;9.190;2023-06-01T01:55:36;7.50;;;4.23;;
5127;SDS011;2582;48.770;9.190;2023-06-01T01:58:02;4.67;;;3.67;;
5127;SDS011;2582;48.770;9.190;2023-06-01T02:00:28;4.33;;;3.93;;
5127;SDS011;2582;48.770;9.190;2023-06-01T02:02:55;5.90;;;3.93;;
5127;SDS011;2582;48.770;9.190;2023-06-01T02:05:21;4.57;;;3.77;;
5127;SDS011;2582;48.770;9.190;2023-06-01T02:07:46;4.43;;;4.03;;
5127;SDS011;2582;48.770;9.190;2023-06-01T02:10:12;4.10;;;3.33;;
5127;SDS011;2582;48.770;9.190;2023-06-01T02:12:37;4.00;;;3.20;;
5127;SDS011;2582;48.770;9.190;2023-06-01T02:15:04;5.03;;;4.30;;
5127;SDS011;2582;48.770;9.190;2023-06-01T02:17:30;5.23;;;3.40;;
5127;SDS011;2582;48.770;9.190;2023-06-01T02:19:57;6.63;;;4.10;;
5127;SDS011;2582;48.770;9.190;2023-06-01T02:22:23;4.30;;;3.63;;
5127;SDS011;2582;48.770;9.190;2023-06-01T02:24:49;4.40;;;4.00;;
5127;SDS011;2582;48.770;9.190;2023-06-01T02:27:14;5.00;;;3.80;;
5127;SDS011;2582;48.770;9.190;2023-06-01T02:29:40;4.77;;;3.77;;
5127;SDS011;2582;48.770;9.190;2023-06-01T02:32:06;4.13;;;3.73;;
5127;SDS011;2582;48.770;9.190;2023-06-01T02:34:32;6.60;;;3.57;;
5127;SDS011;2582;48.770;9.190;2023-06-01T02:36:57;5.80;;;3.60;;
5127;SDS011;2582;48.770;9.190;2023-06-01T02:39:24;4.57;;;3.97;;
5127;SDS011;2582;48.770;9.190;2023-06-01T02:41:49;7.07;;;4.67;;
5127;SDS011;2582;48.770;9.190;2023-06-01T02:44:15;4.40;;;3.80;;
5127;SDS011;2582;48.770;9.190;2023-06-01T02:46:41;4.67;;;3.77;;
5127;SDS011;2582;48.770;9.190;2023-06-01T02:49:06;4.50;;;3.43;;
5127;SDS011;2582;48.770;9.190;2023-06-01T02:51:32;5.27;;;3.70;;
5127;SDS011;2582;48.770;9.190;2023-06-01T02:53:58;11.03;;;4.30;;
5127;SDS011;2582;48.770;9.190;2023-06-01T02:56:24;4.10;;;3.50;;
5127;SDS011;2582;48.770;9.190;2023-06-01T02:58:50;5.43;;;3.90;;
5127;SDS011;2582;48.770;9.190;2023-06-01T03:01:15;6.77;;;4.20;;
5127;SDS011;2582;48.770;9.190;2023-06-01T03:03:41;6.30;;;4.30;;
5127;SDS011;2582;48.770;9.190;2023-06-01T03:06:07;6.10;;;3.70;;
5127;SDS011;2582;48.770;9.190;2023-06-01T03:08:33;6.37;;;3.63;;
5127;SDS011;2582;48.770;9.190;2023-06-01T03:10:59;4.90;;;3.50;;
5127;SDS011;2582;48.770;9.190;2023-06-01T03:13:25;6.53;;;4.20;;
5127;SDS011;2582;48.770;9.190;2023-06-01T03:15:50;4.80;;;4.00;;
5127;SDS011;2582;48.770;9.190;2023-06-01T03:18:16;4.43;;;3.20;;
5127;SDS011;2582;48.770;9.190;2023-06-01T03:20:42;6.17;;;4.40;;
5127;SDS011;2582;48.770;9.190;2023-06-01T03:23:07;7.80;;;4.03;;
5127;SDS011;2582;48.770;9.190;2023-06-01T03:25:33;5.60;;;4.17;;
5127;SDS011;2582;48.770;9.190;2023-06-01T03:27:59;4.67;;;3.70;;
5127;SDS011;2582;48.770;9.190;2023-06-01T03:30:25;4.93;;;3.27;;
5127;SDS011;2582;48.770;9.190;2023-06-01T03:32:50;5.70;;;4.07;;
5127;SDS011;2582;48.770;9.190;2023-06-01T03:35:16;5.37;;;3.73;;
5127;SDS011;2582;48.770;9.190;2023-06-01T03:37:42;3.73;;;3.33;;
5127;SDS011;2582;48.770;9.190;2023-06-01T03:40:09;5.33;;;3.53;;
5127;SDS011;2582;48.770;9.190;2023-06-01T03:42:39;7.00;;;4.00;;
5127;SDS011;2582;48.770;9.190;2023-06-01T03:45:06;6.93;;;4.30;;
5127;SDS011;2582;48.770;9.190;2023-06-01T03:47:33;5.33;;;3.93;;
5127;SDS011;2582;48.770;9.190;2023-06-01T03:49:59;4.40;;;3.43;;
5127;SDS011;2582;48.770;9.190;2023-06-01T03:52:25;3.83;;;3.53;;
5127;SDS011;2582;48.770;9.190;2023-06-01T03:54:51;5.60;;;4.23;;
5127;SDS011;2582;48.770;9.190;2023-06-01T03:57:17;5.40;;;3.73;;
5127;SDS011;2582;48.770;9.190;2023-06-01T03:59:43;4.33;;;3.60;;
5127;SDS011;2582;48.770;9.190;2023-06-01T04:02:08;4.00;;;3.50;;
5127;SDS011;2582;48.770;9.190;2023-06-01T04:04:34;4.43;;;3.40;;
5127;SDS011;2582;48.770;9.190;2023-06-01T04:07:00;5.70;;;3.47;;
5127;SDS011;2582;48.770;9.190;2023-06-01T04:09:30;11.00;;;4.10;;
5127;SDS011;2582;48.770;9.190;2023-06-01T04:11:56;7.07;;;4.30;;
5127;SDS011;2582;48.770;9.190;2023-06-01T04:14:21;5.33;;;3.87;;
5127;SDS011;2582;48.770;9.190;2023-06-01T04:16:47;6.27;;;3.90;;
5127;SDS011;2582;48.770;9.190;2023-06-01T04:19:13;9.03;;;4.37;;
5127;SDS011;2582;48.770;9.190;2023-06-01T04:21:38;4.13;;;3.70;;
5127;SDS011;2582;48.770;9.190;2023-06-01T04:24:04;4.23;;;3.83;;
5127;SDS011;2582;48.770;9.190;2023-06-01T04:26:29;6.20;;;4.30;;
5127;SDS011;2582;48.770;9.190;2023-06-01T04:28:57;8.20;;;4.70;;
5127;SDS011;2582;48.770;9.190;2023-06-01T04:31:23;7.00;;;5.70;;
5127;SDS011;2582;48.770;9.190;2023-06-01T04:33:49;8.07;;;5.00;;
5127;SDS011;2582;48.770;9.190;2023-06-01T04:36:20;5.23;;;4.60;;
5127;SDS011;2582;48.770;9.190;2023-06-01T04:38:47;5.97;;;4.97;;
5127;SDS011;2582;48.770;9.190;2023-06-01T04:41:19;5.07;;;4.50;;
5127;SDS011;2582;48.770;9.190;2023-06-01T04:43:46;7.83;;;4.60;;
5127;SDS011;2582;48.770;9.190;2023-06-01T04:46:17;5.37;;;3.87;;
5127;SDS011;2582;48.770;9.190;2023-06-01T04:48:48;6.77;;;4.10;;
5127;SDS011;2582;48.770;9.190;2023-06-01T04:51:16;5.50;;;4.20;;
5127;SDS011;2582;48.770;9.190;2023-06-01T04:53:46;6.07;;;4.27;;
5127;SDS011;2582;48.770;9.190;2023-06-01T04:56:19;4.40;;;3.93;;
5127;SDS011;2582;48.770;9.190;2023-06-01T04:58:49;4.57;;;3.63;;
5127;SDS011;2582;48.770;9.190;2023-06-01T05:01:16;5.33;;;3.67;;
5127;SDS011;2582;48.770;9.190;2023-06-01T05:03:43;4.37;;;3.90;;
5127;SDS011;2582;48.770;9.190;2023-06-01T05:06:12;5.83;;;4.50;;
5127;SDS011;2582;48.770;9.190;2023-06-01T05:08:38;5.90;;;3.90;;
5127;SDS011;2582;48.770;9.190;2023-06-01T05:11:05;4.43;;;4.03;;
5127;SDS011;2582;48.770;9.190;2023-06-01T05:13:31;4.80;;;3.47;;
5127;SDS011;2582;48.770;9.190;2023-06-01T05:15:58;6.53;;;4.00;;
5127;SDS011;2582;48.770;9.190;2023-06-01T05:18:24;4.23;;;3.63;;
5127;SDS011;2582;48.770;9.190;2023-06-01T05:20:49;5.47;;;3.93;;
5127;SDS011;2582;48.770;9.190;2023-06-01T05:23:15;4.97;;;3.10;;
5127;SDS011;2582;48.770;9.190;2023-06-01T05:25:40;4.73;;;3.50;;
5127;SDS011;2582;48.770;9.190;2023-06-01T05:28:06;3.83;;;3.53;;
5127;SDS011;2582;48.770;9.190;2023-06-01T05:30:31;4.53;;;3.53;;
5127;SDS011;2582;48.770;9.190;2023-06-01T05:32:57;5.80;;;3.93;;
5127;SDS011;2582;48.770;9.190;2023-06-01T05:35:22;8.80;;;3.97;;
5127;SDS011;2582;48.770;9.190;2023-06-01T05:37:48;3.73;;;3.33;;
5127;SDS011;2582;48.770;9.190;2023-06-01T05:40:15;4.97;;;3.60;;
5127;SDS011;2582;48.770;9.190;2023-06-01T05:42:40;4.07;;;3.67;;
5127;SDS011;2582;48.770;9.190;2023-06-01T05:45:06;6.93;;;3.67;;
5127;SDS011;2582;48.770;9.190;2023-06-01T05:47:32;3.83;;;3.07;;
5127;SDS011;2582;48.770;9.190;2023-06-01T05:49:57;4.53;;;3.10;;
5127;SDS011;2582;48.770;9.190;2023-06-01T05:52:23;7.33;;;4.37;;
5127;SDS011;2582;48.770;9.190;2023-06-01T05:54:48;6.10;;;4.13;;
5127;SDS011;2582;48.770;9.190;2023-06-01T05:57:15;5.43;;;3.23;;
5127;SDS011;2582;48.770;9.190;2023-06-01T05:59:41;9.83;;;4.50;;
5127;SDS011;2582;48.770;9.190;2023-06-01T06:02:07;8.60;;;4.03;;
5127;SDS011;2582;48.770;9.190;2023-06-01T06:04:33;6.40;;;3.83;;
5127;SDS011;2582;48.770;9.190;2023-06-01T06:06:58;9.30;;;4.00;;
5127;SDS011;2582;48.770;9.190;2023-06-01T06:09:24;7.17;;;4.47;;
5127;SDS011;2582;48.770;9.190;2023-06-01T06:11:50;6.50;;;3.83;;
5127;SDS011;2582;48.770;9.190;2023-06-01T06:14:16;6.50;;;3.87;;
5127;SDS011;2582;48.770;9.190;2023-06-01T06:16:41;9.80;;;3.93;;
5127;SDS011;2582;48.770;9.190;2023-06-01T06:19:07;6.70;;;4.27;;
5127;SDS011;2582;48.770;9.190;2023-06-01T06:21:33;7.33;;;4.07;;
5127;SDS011;2582;48.770;9.190;2023-06-01T06:23:59;6.50;;;3.93;;
5127;SDS011;2582;48.770;9.190;2023-06-01T06:26:27;5.00;;;3.57;;
5127;SDS011;2582;48.770;9.190;2023-06-01T06:28:53;5.83;;;3.90;;
5127;SDS011;2582;48.770;9.190;2023-06-01T06:31:18;12.03;;;4.30;;
5127;SDS011;2582;48.770;9.190;2023-06-01T06:33:45;5.50;;;3.70;;
5127;SDS011;2582;48.770;9.190;2023-06-01T06:36:10;6.00;;;3.43;;
5127;SDS011;2582;48.770;9.190;2023-06-01T06:38:36;5.83;;;5.13;;
5127;SDS011;2582;48.770;9.190;2023-06-01T06:41:01;6.77;;;4.43;;
5127;SDS011;2582;48.770;9.190;2023-06-01T06:43:27;8.30;;;3.90;;
5127;SDS011;2582;48.770;9.190;2023-06-01T06:45:52;6.67;;;4.10;;
5127;SDS011;2582;48.770;9.190;2023-06-01T06:48:18;4.27;;;3.87;;
5127;SDS011;2582;48.770;9.190;2023-06-01T06:50:44;8.27;;;4.00;;
5127;SDS011;2582;48.770;9.190;2023-06-01T06:53:10;8.77;;;4.60;;
5127;SDS011;2582;48.770;9.190;2023-06-01T06:55:36;8.17;;;5.17;;
5127;SDS011;2582;48.770;9.190;2023-06-01T06:58:02;5.60;;;4.33;;
5127;SDS011;2582;48.770;9.190;2023-06-01T07:00:27;5.87;;;4.13;;
5127;SDS011;2582;48.770;9.190;2023-06-01T07:02:53;5.60;;;4.07;;
5127;SDS011;2582;48.770;9.190;2023-06-01T07:05:20;6.03;;;5.13;;
5127;SDS011;2582;48.770;9.190;2023-06-01T07:07:46;8.47;;;4.87;;
5127;SDS011;2582;48.770;9.190;2023-06-01T07:10:11;5.50;;;4.30;;
5127;SDS011;2582;48.770;9.190;2023-06-01T07:12:37;6.80;;;4.90;;
5127;SDS011;2582;48.770;9.190;2023-06-01T07:15:03;6.20;;;4.40;;
5127;SDS011;2582;48.770;9.190;2023-06-01T07:17:30;9.47;;;4.20;;
5127;SDS011;2582;48.770;9.190;2023-06-01T07:19:56;5.93;;;4.73;;
5127;SDS011;2582;48.770;9.190;2023-06-01T07:22:23;6.40;;;4.47;;
5127;SDS011;2582;48.770;9.190;2023-06-01T07:24:48;9.03;;;4.43;;
5127;SDS011;2582;48.770;9.190;2023-06-01T07:27:14;6.17;;;4.10;;
5127;SDS011;2582;48.770;9.190;2023-06-01T07:29:40;6.87;;;3.93;;
5127;SDS011;2582;48.770;9.190;2023-06-01T07:32:06;5.60;;;4.33;;
5127;SDS011;2582;48.770;9.190;2023-06-01T07:34:32;6.23;;;4.40;;
5127;SDS011;2582;48.770;9.190;2023-06-01T07:37:00;8.17;;;5.10;;
5127;SDS011;2582;48.770;9.190;2023-06-01T07:39:26;7.90;;;4.83;;
5127;SDS011;2582;48.770;9.190;2023-06-01T07:41:51;10.20;;;6.23;;
5127;SDS011;2582;48.770;9.190;2023-06-01T07:44:18;7.00;;;5.10;;
5127;SDS011;2582;48.770;9.190;2023-06-01T07:46:45;7.70;;;5.40;;
5127;SDS011;2582;48.770;9.190;2023-06-01T07:49:11;14.60;;;5.53;;
5127;SDS011;2582;48.770;9.190;2023-06-01T07:51:40;5.23;;;4.20;;
5127;SDS011;2582;48.770;9.190;2023-06-01T07:54:07;7.50;;;5.10;;
5127;SDS011;2582;48.770;9.190;2023-06-01T07:56:33;8.03;;;4.90;;
5127;SDS011;2582;48.770;9.190;2023-06-01T07:58:59;9.57;;;4.93;;
5127;SDS011;2582;48.770;9.190;2023-06-01T08:01:25;7.55;;;5.10;;
5127;SDS011;2582;48.770;9.190;2023-06-01T08:03:50;8.20;;;4.73;;
5127;SDS011;2582;48.770;9.190;2023-06-01T08:06:16;9.20;;;4.83;;
5127;SDS011;2582;48.770;9.190;2023-06-01T08:08:42;10.33;;;5.27;;
5127;SDS011;2582;48.770;9.190;2023-06-01T08:11:08;7.77;;;4.47;;
5127;SDS011;2582;48.770;9.190;2023-06-01T08:13:34;6.07;;;4.57;;
5127;SDS011;2582;48.770;9.190;2023-06-01T08:16:01;8.20;;;5.13;;
5127;SDS011;2582;48.770;9.190;2023-06-01T08:18:27;7.43;;;4.93;;
5127;SDS011;2582;48.770;9.190;2023-06-01T08:20:54;9.87;;;5.57;;
5127;SDS011;2582;48.770;9.190;2023-06-01T08:23:20;7.30;;;5.90;;
5127;SDS011;2582;48.770;9.190;2023-06-01T08:25:47;8.70;;;5.90;;
5127;SDS011;2582;48.770;9.190;2023-06-01T08:28:13;6.70;;;5.50;;
5127;SDS011;2582;48.770;9.190;2023-06-01T08:30:39;7.30;;;4.93;;
5127;SDS011;2582;48.770;9.190;2023-06-01T08:33:04;8.33;;;5.30;;
5127;SDS011;2582;48.770;9.190;2023-06-01T08:35:30;5.03;;;4.53;;
5127;SDS011;2582;48.770;9.190;2023-06-01T08:37:58;5.97;;;5.03;;
5127;SDS011;2582;48.770;9.190;2023-06-01T08:40:25;7.97;;;5.13;;
5127;SDS011;2582;48.770;9.190;2023-06-01T08:45:28;7.20;;;5.83;;
5127;SDS011;2582;48.770;9.190;2023-06-01T08:47:54;6.93;;;5.47;;
5127;SDS011;2582;48.770;9.190;2023-06-01T08:50:22;6.87;;;5.30;;
5127;SDS011;2582;48.770;9.190;2023-06-01T08:52:52;7.33;;;5.87;;
5127;SDS011;2582;48.770;9.190;2023-06-01T08:55:20;8.40;;;4.67;;
5127;SDS011;2582;48.770;9.190;2023-06-01T08:57:46;7.63;;;5.73;;
5127;SDS011;2582;48.770;9.190;2023-06-01T09:00:12;9.30;;;5.53;;
5127;SDS011;2582;48.770;9.190;2023-06-01T09:02:38;7.47;;;4.90;;
5127;SDS011;2582;48.770;9.190;2023-06-01T09:05:05;7.50;;;5.67;;
5127;SDS011;2582;48.770;9.190;2023-06-01T09:07:31;5.70;;;5.10;;
5127;SDS011;2582;48.770;9.190;2023-06-01T09:09:56;5.67;;;5.17;;
5127;SDS011;2582;48.770;9.190;2023-06-01T09:12:23;8.03;;;5.20;;
5127;SDS011;2582;48.770;9.190;2023-06-01T09:15:11;7.57;;;5.93;;
5127;SDS011;2582;48.770;9.190;2023-06-01T09:17:38;6.40;;;5.10;;
5127;SDS011;2582;48.770;9.190;2023-06-01T09:20:05;10.87;;;5.47;;
5127;SDS011;2582;48.770;9.190;2023-06-01T09:22:41;8.20;;;5.80;;
5127;SDS011;2582;48.770;9.190;2023-06-01T09:25:08;9.67;;;6.30;;
5127;SDS011;2582;48.770;9.190;2023-06-01T09:30:14;9.37;;;5.57;;
5127;SDS011;2582;48.770;9.190;2023-06-01T09:32:41;6.60;;;5.60;;
5127;SDS011;2582;48.770;9.190;2023-06-01T09:35:09;6.03;;;5.20;;
5127;SDS011;2582;48.770;9.190;2023-06-01T09:37:36;9.83;;;5.03;;
5127;SDS011;2582;48.770;9.190;2023-06-01T09:40:06;6.40;;;5.07;;
5127;SDS011;2582;48.770;9.190;2023-06-01T09:42:42;7.27;;;5.57;;
5127;SDS011;2582;48.770;9.190;2023-06-01T09:45:15;5.77;;;4.90;;
5127;SDS011;2582;48.770;9.190;2023-06-01T09:47:43;7.27;;;5.53;;
5127;SDS011;2582;48.770;9.190;2023-06-01T09:50:10;7.60;;;5.40;;
5127;SDS011;2582;48.770;9.190;2023-06-01T09:52:36;7.83;;;5.83;;
5127;SDS011;2582;48.770;9.190;2023-06-01T09:55:05;7.27;;;6.00;;
5127;SDS011;2582;48.770;9.190;2023-06-01T09:57:33;6.60;;;5.30;;
5127;SDS011;2582;48.770;9.190;2023-06-01T09:59:59;6.13;;;5.47;;
5127;SDS011;2582;48.770;9.190;2023-06-01T10:02:28;6.90;;;5.13;;
5127;SDS011;2582;48.770;9.190;2023-06-01T10:04:56;6.70;;;5.40;;
5127;SDS011;2582;48.770;9.190;2023-06-01T10:07:23;9.37;;;5.23;;
5127;SDS011;2582;48.770;9.190;2023-06-01T10:09:56;7.10;;;5.40;;
5127;SDS011;2582;48.770;9.190;2023-06-01T10:12:24;6.80;;;5.83;;
5127;SDS011;2582;48.770;9.190;2023-06-01T10:14:53;10.13;;;6.40;;
5127;SDS011;2582;48.770;9.190;2023-06-01T10:17:20;8.60;;;6.23;;
5127;SDS011;2582;48.770;9.190;2023-06-01T10:19:46;6.13;;;5.13;;
5127;SDS011;2582;48.770;9.190;2023-06-01T10:22:12;6.70;;;6.10;;
5127;SDS011;2582;48.770;9.190;2023-06-01T10:24:38;7.47;;;5.53;;
5127;SDS011;2582;48.770;9.190;2023-06-01T10:27:15;6.43;;;5.33;;
5127;SDS011;2582;48.770;9.190;2023-06-01T10:29:47;6.50;;;5.33;;
5127;SDS011;2582;48.770;9.190;2023-06-01T10:32:40;8.73;;;5.50;;
5127;SDS011;2582;48.770;9.190;2023-06-01T10:35:07;6.10;;;5.40;;
5127;SDS011;2582;48.770;9.190;2023-06-01T10:37:33;9.10;;;5.70;;
5127;SDS011;2582;48.770;9.190;2023-06-01T10:42:42;6.10;;;5.50;;
5127;SDS011;2582;48.770;9.190;2023-06-01T10:48:00;7.50;;;5.33;;
5127;SDS011;2582;48.770;9.190;2023-06-01T10:50:26;6.40;;;4.93;;
5127;SDS011;2582;48.770;9.190;2023-06-01T10:52:53;6.50;;;5.80;;
5127;SDS011;2582;48.770;9.190;2023-06-01T10:55:24;9.77;;;6.07;;
5127;SDS011;2582;48.770;9.190;2023-06-01T10:57:50;7.10;;;6.03;;
5127;SDS011;2582;48.770;9.190;2023-06-01T11:00:23;5.30;;;4.87;;
5127;SDS011;2582;48.770;9.190;2023-06-01T11:02:59;6.73;;;5.60;;
5127;SDS011;2582;48.770;9.190;2023-06-01T11:05:46;9.83;;;5.80;;
5127;SDS011;2582;48.770;9.190;2023-06-01T11:13:26;7.63;;;5.80;;
5127;SDS011;2582;48.770;9.190;2023-06-01T11:24:12;7.37;;;6.10;;
5127;SDS011;2582;48.770;9.190;2023-06-01T11:26:43;5.53;;;4.93;;
5127;SDS011;2582;48.770;9.190;2023-06-01T11:31:46;7.40;;;5.20;;
5127;SDS011;2582;48.770;9.190;2023-06-01T11:34:14;6.20;;;5.23;;
5127;SDS011;2582;48.770;9.190;2023-06-01T11:36:42;6.97;;;4.80;;
5127;SDS011;2582;48.770;9.190;2023-06-01T11:39:16;6.87;;;4.77;;
5127;SDS011;2582;48.770;9.190;2023-06-01T11:41:44;8.10;;;5.43;;
5127;SDS011;2582;48.770;9.190;2023-06-01T11:44:10;4.40;;;3.90;;
5127;SDS011;2582;48.770;9.190;2023-06-01T11:46:35;15.17;;;4.80;;
5127;SDS011;2582;48.770;9.190;2023-06-01T11:49:05;7.47;;;4.70;;
5127;SDS011;2582;48.770;9.190;2023-06-01T11:51:31;6.00;;;5.07;;
5127;SDS011;2582;48.770;9.190;2023-06-01T11:54:02;5.80;;;5.30;;
5127;SDS011;2582;48.770;9.190;2023-06-01T11:56:29;6.90;;;4.73;;
5127;SDS011;2582;48.770;9.190;2023-06-01T11:59:04;6.43;;;5.80;;
5127;SDS011;2582;48.770;9.190;2023-06-01T12:01:33;6.23;;;5.00;;
5127;SDS011;2582;48.770;9.190;2023-06-01T12:04:02;5.47;;;4.97;;
5127;SDS011;2582;48.770;9.190;2023-06-01T12:06:29;5.40;;;4.90;;
5127;SDS011;2582;48.770;9.190;2023-06-01T12:08:56;7.67;;;4.80;;
5127;SDS011;2582;48.770;9.190;2023-06-01T12:11:22;8.73;;;5.30;;
5127;SDS011;2582;48.770;9.190;2023-06-01T12:13:55;5.30;;;4.70;;
5127;SDS011;2582;48.770;9.190;2023-06-01T12:16:21;7.10;;;5.17;;
5127;SDS011;2582;48.770;9.190;2023-06-01T12:18:48;7.20;;;4.77;;
5127;SDS011;2582;48.770;9.190;2023-06-01T12:21:14;6.23;;;4.60;;
5127;SDS011;2582;48.770;9.190;2023-06-01T12:23:41;6.43;;;4.40;;
5127;SDS011;2582;48.770;9.190;2023-06-01T12:26:07;5.50;;;5.00;;
5127;SDS011;2582;48.770;9.190;2023-06-01T12:28:49;7.40;;;4.90;;
5127;SDS011;2582;48.770;9.190;2023-06-01T12:31:18;5.27;;;4.80;;
5127;SDS011;2582;48.770;9.190;2023-06-01T12:33:44;5.20;;;4.40;;
5127;SDS011;2582;48.770;9.190;2023-06-01T12:36:12;4.73;;;4.20;;
5127;SDS011;2582;48.770;9.190;2023-06-01T12:38:56;6.80;;;4.80;;
5127;SDS011;2582;48.770;9.190;2023-06-01T12:41:23;4.90;;;3.90;;
5127;SDS011;2582;48.770;9.190;2023-06-01T12:43:49;5.03;;;4.53;;
5127;SDS011;2582;48.770;9.190;2023-06-01T12:46:25;6.60;;;4.60;;
5127;SDS011;2582;48.770;9.190;2023-06-01T12:48:52;6.03;;;5.10;;
5127;SDS011;2582;48.770;9.190;2023-06-01T12:51:38;5.00;;;4.50;;
5127;SDS011;2582;48.770;9.190;2023-06-01T12:54:04;6.50;;;5.20;;
5127;SDS011;2582;48.770;9.190;2023-06-01T12:56:29;5.90;;;4.60;;
5127;SDS011;2582;48.770;9.190;2023-06-01T12:58:55;4.90;;;4.20;;
5127;SDS011;2582;48.770;9.190;2023-06-01T13:01:21;4.80;;;4.40;;
5127;SDS011;2582;48.770;9.190;2023-06-01T13:03:46;5.07;;;4.27;;
5127;SDS011;2582;48.770;9.190;2023-06-01T13:06:12;5.27;;;4.30;;
5127;SDS011;2582;48.770;9.190;2023-06-01T13:08:41;5.10;;;4.67;;
5127;SDS011;2582;48.770;9.190;2023-06-01T13:11:07;5.80;;;4.80;;
5127;SDS011;2582;48.770;9.190;2023-06-01T13:13:33;5.13;;;4.60;;
5127;SDS011;2582;48.770;9.190;2023-06-01T13:15:59;4.77;;;4.30;;
5127;SDS011;2582;48.770;9.190;2023-06-01T13:18:25;7.63;;;4.93;;
5127;SDS011;2582;48.770;9.190;2023-06-01T13:20:51;4.27;;;3.87;;
5127;SDS011;2582;48.770;9.190;2023-06-01T13:23:17;6.30;;;3.90;;
5127;SDS011;2582;48.770;9.190;2023-06-01T13:25:43;4.77;;;4.33;;
5127;SDS011;2582;48.770;9.190;2023-06-01T13:28:08;4.97;;;4.40;;
5127;SDS011;2582;48.770;9.190;2023-06-01T13:30:34;7.50;;;4.70;;
5127;SDS011;2582;48.770;9.190;2023-06-01T13:33:00;8.53;;;4.53;;
5127;SDS011;2582;48.770;9.190;2023-06-01T13:35:26;5.30;;;4.30;;
5127;SDS011;2582;48.770;9.190;2023-06-01T13:37:52;5.23;;;4.73;;
5127;SDS011;2582;48.770;9.190;2023-06-01T13:40:18;4.40;;;4.00;;
5127;SDS011;2582;48.770;9.190;2023-06-01T13:42:47;5.33;;;4.10;;
5127;SDS011;2582;48.770;9.190;2023-06-01T13:45:13;7.47;;;5.10;;
5127;SDS011;2582;48.770;9.190;2023-06-01T13:47:39;6.13;;;4.73;;
5127;SDS011;2582;48.770;9.190;2023-06-01T13:50:06;7.30;;;4.70;;
5127;SDS011;2582;48.770;9.190;2023-06-01T13:52:32;4.67;;;4.23;;
5127;SDS011;2582;48.770;9.190;2023-06-01T13:54:58;4.00;;;3.70;;
5127;SDS011;2582;48.770;9.190;2023-06-01T13:57:24;4.40;;;4.00;;
5127;SDS011;2582;48.770;9.190;2023-06-01T13:59:49;4.60;;;4.00;;
5127;SDS011;2582;48.770;9.190;2023-06-01T14:02:15;6.27;;;3.90;;
5127;SDS011;2582;48.770;9.190;2023-06-01T14:04:40;4.07;;;3.67;;
5127;SDS011;2582;48.770;9.190;2023-06-01T14:07:06;5.20;;;4.70;;
5127;SDS011;2582;48.770;9.190;2023-06-01T14:09:32;5.23;;;4.03;;
5127;SDS011;2582;48.770;9.190;2023-06-01T14:11:57;4.10;;;3.20;;
5127;SDS011;2582;48.770;9.190;2023-06-01T14:14:23;6.40;;;3.97;;
5127;SDS011;2582;48.770;9.190;2023-06-01T14:16:48;6.50;;;3.47;;
5127;SDS011;2582;48.770;9.190;2023-06-01T14:19:14;6.23;;;3.87;;
5127;SDS011;2582;48.770;9.190;2023-06-01T14:21:40;4.03;;;3.63;;
5127;SDS011;2582;48.770;9.190;2023-06-01T14:24:06;4.60;;;3.53;;
5127;SDS011;2582;48.770;9.190;2023-06-01T14:26:31;6.47;;;3.30;;
5127;SDS011;2582;48.770;9.190;2023-06-01T14:28:57;5.60;;;3.77;;
5127;SDS011;2582;48.770;9.190;2023-06-01T14:31:22;5.97;;;3.10;;
5127;SDS011;2582;48.770;9.190;2023-06-01T14:33:48;5.63;;;3.20;;
5127;SDS011;2582;48.770;9.190;2023-06-01T14:36:13;4.03;;;3.23;;
5127;SDS011;2582;48.770;9.190;2023-06-01T14:38:39;3.90;;;3.43;;
5127;SDS011;2582;48.770;9.190;2023-06-01T14:41:05;5.00;;;3.00;;
5127;SDS011;2582;48.770;9.190;2023-06-01T14:43:31;4.90;;;2.93;;
5127;SDS011;2582;48.770;9.190;2023-06-01T14:45:57;4.33;;;3.47;;
5127;SDS011;2582;48.770;9.190;2023-06-01T14:48:23;3.20;;;2.90;;
5127;SDS011;2582;48.770;9.190;2023-06-01T14:50:48;4.00;;;3.47;;
5127;SDS011;2582;48.770;9.190;2023-06-01T14:53:14;4.43;;;3.53;;
5127;SDS011;2582;48.770;9.190;2023-06-01T14:55:40;4.83;;;3.27;;
5127;SDS011;2582;48.770;9.190;2023-06-01T14:58:06;4.27;;;3.57;;
5127;SDS011;2582;48.770;9.190;2023-06-01T15:00:33;6.30;;;3.20;;
5127;SDS011;2582;48.770;9.190;2023-06-01T15:03:00;5.67;;;3.17;;
5127;SDS011;2582;48.770;9.190;2023-06-01T15:05:26;4.83;;;3.27;;
5127;SDS011;2582;48.770;9.190;2023-06-01T15:07:51;4.00;;;3.00;;
5127;SDS011;2582;48.770;9.190;2023-06-01T15:10:17;3.57;;;3.13;;
5127;SDS011;2582;48.770;9.190;2023-06-01T15:12:43;2.77;;;2.57;;
5127;SDS011;2582;48.770;9.190;2023-06-01T15:15:08;6.23;;;3.17;;
5127;SDS011;2582;48.770;9.190;2023-06-01T15:17:34;3.50;;;2.70;;
5127;SDS011;2582;48.770;9.190;2023-06-01T15:19:59;5.33;;;3.40;;
5127;SDS011;2582;48.770;9.190;2023-06-01T15:22:25;3.43;;;3.07;;
5127;SDS011;2582;48.770;9.190;2023-06-01T15:24:51;4.43;;;3.00;;
5127;SDS011;2582;48.770;9.190;2023-06-01T15:27:16;4.40;;;2.80;;
5127;SDS011;2582;48.770;9.190;2023-06-01T15:29:44;3.13;;;2.83;;
5127;SDS011;2582;48.770;9.190;2023-06-01T15:32:10;4.40;;;2.67;;
5127;SDS011;2582;48.770;9.190;2023-06-01T15:34:35;3.07;;;2.77;;
5127;SDS011;2582;48.770;9.190;2023-06-01T15:37:06;3.30;;;2.97;;
5127;SDS011;2582;48.770;9.190;2023-06-01T15:39:35;2.87;;;2.60;;
5127;SDS011;2582;48.770;9.190;2023-06-01T15:42:04;4.97;;;3.50;;
5127;SDS011;2582;48.770;9.190;2023-06-01T15:44:31;3.60;;;2.40;;
5127;SDS011;2582;48.770;9.190;2023-06-01T15:46:56;3.20;;;2.90;;